Time;durP1;ratioP1;P1;durP2;ratioP2;P2;SDS_P1;SDS_P2;PMS_P1;PMS_P2;Temp;Humidity;BMP_temperature;BMP_pressure;BME280_temperature;BME280_humidity;BME280_pressure;Samples;Min_cycle;Max_cycle;Signal;HPM_P1;HPM_P2
2023/05/02 00:01:55;;;;;;;;;;;9.80;62.80;;;;;;5025549;28;20319;-78
2023/05/02 00:04:21;;;;;;;;;;;9.80;62.80;;;;;;4994296;28;19929;-77
2023/05/02 00:06:46;;;;;;;;;;;9.80;62.80;;;;;;5009933;28;20376;-78
2023/05/02 00:09:12;;;;;;;;;;;9.70;62.80;;;;;;5009730;28;19960;-77
2023/05/02 00:11:37;;;;;;;;;;;9.70;62.80;;;;;;5009019;28;20004;-77
2023/05/02 00:14:03;;;;;;;;;;;9.70;62.90;;;;;;5005834;28;19964;-78
2023/05/02 00:16:28;;;;;;;;;;;9.60;62.90;;;;;;5008097;28;19921;-77
2023/05/02 00:18:54;;;;;;;;;;;9.60;62.90;;;;;;5030200;28;19925;-77
2023/05/02 00:21:19;;;;;;;;;;;9.50;62.90;;;;;;5029798;28;19925;-78
2023/05/02 00:23:45;;;;;;;;;;;9.50;63.00;;;;;;5012405;28;19941;-77
2023/05/02 00:26:10;;;;;;;;;;;9.50;63.10;;;;;;5033514;28;19921;-78
2023/05/02 00:28:36;;;;;;;;;;;9.40;63.00;;;;;;5015901;28;19972;-77
2023/05/02 00:31:03;;;;;;;;;;;9.40;63.10;;;;;;5012976;28;19928;-77
2023/05/02 00:33:28;;;;;;;;;;;9.40;63.10;;;;;;5009483;28;19921;-77
2023/05/02 00:35:53;;;;;;;;;;;9.40;63.20;;;;;;5011105;28;19932;-78
2023/05/02 00:38:19;;;;;;;;;;;9.40;63.20;;;;;;5009348;28;19928;-78
2023/05/02 00:40:45;;;;;;;;;;;9.30;63.20;;;;;;5024712;28;19929;-78
2023/05/02 00:43:10;;;;;;;;;;;9.30;63.20;;;;;;5028867;28;19935;-77
2023/05/02 00:45:39;;;;;;;;;;;9.30;63.20;;;;;;5020955;28;19925;-77
2023/05/02 00:48:05;;;;;;;;;;;9.20;63.20;;;;;;5016238;28;19956;-77
2023/05/02 00:50:30;;;;;;;;;;;9.20;63.30;;;;;;5019346;28;20055;-78
2023/05/02 00:52:56;;;;;;;;;;;9.20;63.30;;;;;;5023633;28;19925;-77
2023/05/02 00:55:21;;;;;;;;;;;9.20;63.40;;;;;;5014384;28;20641;-77
2023/05/02 00:57:47;;;;;;;;;;;9.20;63.30;;;;;;5000992;28;19921;-77
2023/05/02 01:00:12;;;;;;;;;;;9.20;63.40;;;;;;5009945;28;19928;-76
2023/05/02 01:02:41;;;;;;;;;;;9.20;63.40;;;;;;5001037;28;20273;-78
2023/05/02 01:05:10;;;;;;;;;;;9.10;63.30;;;;;;5014748;28;19921;-77
2023/05/02 01:07:54;;;;;;;;;;;9.10;63.40;;;;;;5003916;28;20015;-77
2023/05/02 01:10:26;;;;;;;;;;;9.10;63.40;;;;;;5035066;28;19928;-77
2023/05/02 01:12:51;;;;;;;;;;;9.10;63.40;;;;;;5031230;28;19925;-78
2023/05/02 01:15:18;;;;;;;;;;;9.10;63.50;;;;;;5033972;28;20026;-78
2023/05/02 01:17:43;;;;;;;;;;;9.10;63.50;;;;;;5031127;28;19921;-78
2023/05/02 01:20:10;;;;;;;;;;;9.10;63.50;;;;;;5015916;28;20058;-77
2023/05/02 01:22:37;;;;;;;;;;;9.10;63.50;;;;;;5011960;28;19960;-78
2023/05/02 01:25:02;;;;;;;;;;;9.00;63.50;;;;;;5023859;28;19922;-77
2023/05/02 01:27:46;;;;;;;;;;;9.10;63.60;;;;;;5013342;28;19952;-77
2023/05/02 01:30:15;;;;;;;;;;;9.00;63.50;;;;;;5043931;28;19994;-77
2023/05/02 01:32:41;;;;;;;;;;;9.00;63.60;;;;;;5013537;28;20387;-77
2023/05/02 01:35:06;;;;;;;;;;;9.10;63.60;;;;;;5008395;28;19922;-77
2023/05/02 01:37:32;;;;;;;;;;;9.00;63.60;;;;;;5031378;28;19959;-77
2023/05/02 01:39:57;;;;;;;;;;;9.00;63.60;;;;;;5012638;28;19940;-78
2023/05/02 01:42:23;;;;;;;;;;;9.00;63.60;;;;;;5031061;28;19969;-77
2023/05/02 01:44:48;;;;;;;;;;;9.00;63.60;;;;;;5029022;28;20374;-78
2023/05/02 01:47:14;;;;;;;;;;;9.00;63.60;;;;;;5029473;28;19920;-77
2023/05/02 01:49:39;;;;;;;;;;;9.00;63.60;;;;;;5026704;28;20007;-77
2023/05/02 01:52:06;;;;;;;;;;;9.00;63.60;;;;;;5031607;28;20441;-77
2023/05/02 01:54:32;;;;;;;;;;;9.00;63.70;;;;;;5015108;28;19960;-77
2023/05/02 01:56:57;;;;;;;;;;;9.00;63.70;;;;;;5047871;28;20011;-77
2023/05/02 01:59:23;;;;;;;;;;;9.00;63.70;;;;;;5016454;28;19925;-77
2023/05/02 02:01:49;;;;;;;;;;;9.00;63.70;;;;;;5029243;28;19986;-77
2023/05/02 02:04:15;;;;;;;;;;;9.00;63.70;;;;;;5014840;28;19968;-77
2023/05/02 02:06:44;;;;;;;;;;;9.00;63.70;;;;;;5007114;28;19976;-77
2023/05/02 02:09:10;;;;;;;;;;;9.00;63.70;;;;;;5026461;28;19925;-78
2023/05/02 02:11:36;;;;;;;;;;;9.00;63.70;;;;;;5012520;28;19928;-78
2023/05/02 02:14:10;;;;;;;;;;;9.00;63.70;;;;;;5009313;28;19979;-78
2023/05/02 02:16:36;;;;;;;;;;;9.00;63.70;;;;;;5010146;28;20048;-77
2023/05/02 02:19:04;;;;;;;;;;;9.00;63.70;;;;;;5029241;28;20518;-78
2023/05/02 02:21:30;;;;;;;;;;;9.00;63.70;;;;;;5025625;28;19935;-77
2023/05/02 02:23:55;;;;;;;;;;;9.00;63.70;;;;;;5023316;28;19957;-77
2023/05/02 02:26:21;;;;;;;;;;;9.00;63.80;;;;;;5015933;28;19925;-77
2023/05/02 02:28:46;;;;;;;;;;;9.00;63.70;;;;;;5026463;28;20010;-77
2023/05/02 02:31:12;;;;;;;;;;;9.00;63.70;;;;;;5019383;28;19928;-77
2023/05/02 02:33:37;;;;;;;;;;;9.00;63.80;;;;;;5038261;28;19921;-78
2023/05/02 02:36:07;;;;;;;;;;;9.00;63.80;;;;;;5001862;28;19952;-78
2023/05/02 02:38:44;;;;;;;;;;;9.00;63.80;;;;;;5007485;28;19927;-77
2023/05/02 02:41:26;;;;;;;;;;;9.00;63.90;;;;;;5015121;28;20015;-77
2023/05/02 02:44:10;;;;;;;;;;;9.00;63.90;;;;;;5020307;28;19987;-78
2023/05/02 02:46:45;;;;;;;;;;;9.10;63.90;;;;;;5013121;28;20392;-77
2023/05/02 02:49:16;;;;;;;;;;;9.10;63.90;;;;;;5019095;28;20482;-78
2023/05/02 02:52:01;;;;;;;;;;;9.00;63.80;;;;;;5036318;28;19959;-77
2023/05/02 02:54:28;;;;;;;;;;;9.00;63.80;;;;;;5037153;28;19921;-77
2023/05/02 02:56:58;;;;;;;;;;;9.10;63.90;;;;;;4990773;28;20333;-77
2023/05/02 02:59:28;;;;;;;;;;;9.10;63.90;;;;;;5007726;28;20004;-78
2023/05/02 03:02:08;;;;;;;;;;;9.10;63.90;;;;;;5027886;28;20444;-77
2023/05/02 03:04:35;;;;;;;;;;;9.10;64.70;;;;;;5025607;28;19921;-77
2023/05/02 03:07:00;;;;;;;;;;;9.10;63.80;;;;;;4999975;28;19921;-76
2023/05/02 03:09:29;;;;;;;;;;;9.10;63.80;;;;;;5026274;28;19924;-77
2023/05/02 03:11:54;;;;;;;;;;;9.10;64.00;;;;;;5015375;28;20387;-77
2023/05/02 03:14:20;;;;;;;;;;;9.10;63.80;;;;;;5031949;28;19921;-78
2023/05/02 03:16:46;;;;;;;;;;;9.20;63.90;;;;;;5036622;28;19921;-77
2023/05/02 03:19:11;;;;;;;;;;;9.10;63.80;;;;;;5024714;28;19944;-77
2023/05/02 03:21:36;;;;;;;;;;;9.10;63.80;;;;;;5021920;28;19925;-78
2023/05/02 03:24:02;;;;;;;;;;;9.10;63.90;;;;;;5006838;28;19992;-78
2023/05/02 03:26:28;;;;;;;;;;;9.10;63.90;;;;;;5013820;28;19917;-77
2023/05/02 03:28:54;;;;;;;;;;;9.20;64.00;;;;;;5024697;28;19979;-76
2023/05/02 03:31:20;;;;;;;;;;;9.20;64.00;;;;;;5012933;28;20593;-77
2023/05/02 03:33:45;;;;;;;;;;;9.20;64.00;;;;;;5027893;28;19920;-77
2023/05/02 03:36:11;;;;;;;;;;;9.20;64.00;;;;;;5030596;28;19928;-78
2023/05/02 03:38:36;;;;;;;;;;;9.20;64.00;;;;;;5025086;28;19960;-76
2023/05/02 03:41:02;;;;;;;;;;;9.20;64.00;;;;;;4992846;28;20412;-77
2023/05/02 03:43:28;;;;;;;;;;;9.20;64.00;;;;;;5025708;28;19929;-78
2023/05/02 03:45:54;;;;;;;;;;;9.20;64.00;;;;;;5012356;28;21647;-78
2023/05/02 03:48:19;;;;;;;;;;;9.20;64.00;;;;;;5024448;28;19927;-78
2023/05/02 03:50:45;;;;;;;;;;;9.20;64.00;;;;;;5011931;28;19922;-78
2023/05/02 03:53:10;;;;;;;;;;;9.20;63.90;;;;;;5024887;28;20003;-77
2023/05/02 03:55:39;;;;;;;;;;;9.20;64.00;;;;;;5012039;28;19976;-78
2023/05/02 03:58:05;;;;;;;;;;;9.20;64.00;;;;;;5003087;28;19929;-77
2023/05/02 04:00:31;;;;;;;;;;;9.30;64.00;;;;;;5018228;28;19920;-78
2023/05/02 04:02:56;;;;;;;;;;;9.30;64.00;;;;;;5032123;28;19932;-77
2023/05/02 04:05:21;;;;;;;;;;;9.30;64.00;;;;;;5010135;28;19921;-78
2023/05/02 04:07:47;;;;;;;;;;;9.30;64.00;;;;;;5032416;28;20517;-77
2023/05/02 04:10:15;;;;;;;;;;;9.30;64.00;;;;;;5017453;28;19925;-78
2023/05/02 04:12:41;;;;;;;;;;;9.30;64.00;;;;;;5030204;28;20492;-78
2023/05/02 04:15:07;;;;;;;;;;;9.30;64.00;;;;;;5031091;28;19921;-78
2023/05/02 04:17:32;;;;;;;;;;;9.30;64.10;;;;;;5030050;28;20289;-78
2023/05/02 04:19:58;;;;;;;;;;;9.30;64.00;;;;;;5045630;28;19920;-77
2023/05/02 04:22:23;;;;;;;;;;;9.30;64.00;;;;;;5035639;28;19967;-77
2023/05/02 04:24:49;;;;;;;;;;;9.30;64.00;;;;;;5031573;28;19921;-78
2023/05/02 04:27:14;;;;;;;;;;;9.30;64.10;;;;;;5025142;28;19920;-78
2023/05/02 04:29:40;;;;;;;;;;;9.30;64.10;;;;;;5024203;28;19921;-78
2023/05/02 04:32:05;;;;;;;;;;;9.30;64.10;;;;;;5033821;28;19982;-78
2023/05/02 04:34:31;;;;;;;;;;;9.30;64.10;;;;;;5044398;28;20469;-78
2023/05/02 04:36:57;;;;;;;;;;;9.30;64.10;;;;;;5016250;28;19925;-78
2023/05/02 04:39:22;;;;;;;;;;;9.40;64.10;;;;;;5028672;28;19932;-77
2023/05/02 04:41:47;;;;;;;;;;;9.40;64.10;;;;;;5028924;28;19928;-78
2023/05/02 04:44:13;;;;;;;;;;;9.30;64.10;;;;;;5026924;28;19921;-78
2023/05/02 04:46:38;;;;;;;;;;;9.40;64.10;;;;;;5016861;28;19977;-77
2023/05/02 04:49:04;;;;;;;;;;;9.40;64.10;;;;;;5018137;28;19921;-77
2023/05/02 04:51:30;;;;;;;;;;;9.40;64.10;;;;;;5026934;28;19987;-77
2023/05/02 04:53:56;;;;;;;;;;;9.40;64.10;;;;;;5026710;28;19920;-77
2023/05/02 04:56:21;;;;;;;;;;;9.50;64.20;;;;;;5013039;28;19953;-77
2023/05/02 04:58:46;;;;;;;;;;;9.50;64.20;;;;;;5011455;28;19921;-77
2023/05/02 05:01:12;;;;;;;;;;;9.50;64.10;;;;;;5014411;28;20044;-78
2023/05/02 05:03:38;;;;;;;;;;;9.50;64.10;;;;;;5012773;28;19925;-77
2023/05/02 05:06:03;;;;;;;;;;;9.50;64.20;;;;;;5019636;28;19921;-77
2023/05/02 05:08:29;;;;;;;;;;;9.50;64.10;;;;;;5031588;28;19940;-78
2023/05/02 05:10:54;;;;;;;;;;;9.50;64.10;;;;;;5035131;28;20276;-78
2023/05/02 05:13:20;;;;;;;;;;;9.60;64.20;;;;;;5032118;28;19936;-77
2023/05/02 05:15:46;;;;;;;;;;;9.60;64.10;;;;;;5017149;28;19952;-77
2023/05/02 05:18:11;;;;;;;;;;;9.60;64.10;;;;;;5020098;28;19917;-77
2023/05/02 05:20:37;;;;;;;;;;;9.60;64.10;;;;;;5021573;28;19921;-77
2023/05/02 05:23:02;;;;;;;;;;;9.60;64.10;;;;;;5027888;28;20387;-78
2023/05/02 05:25:28;;;;;;;;;;;9.70;64.20;;;;;;5021806;28;19921;-77
2023/05/02 05:27:55;;;;;;;;;;;9.60;64.10;;;;;;5014999;28;20986;-77
2023/05/02 05:30:20;;;;;;;;;;;9.70;64.20;;;;;;5034135;28;19925;-78
2023/05/02 05:32:46;;;;;;;;;;;9.70;64.20;;;;;;5028814;28;19931;-78
2023/05/02 05:35:11;;;;;;;;;;;9.70;64.10;;;;;;5030333;28;19971;-77
2023/05/02 05:37:38;;;;;;;;;;;9.80;64.20;;;;;;5027277;28;19978;-78
2023/05/02 05:40:07;;;;;;;;;;;9.80;64.20;;;;;;5033763;28;19939;-78
2023/05/02 05:42:32;;;;;;;;;;;9.80;64.10;;;;;;5035169;28;19925;-77
2023/05/02 05:44:58;;;;;;;;;;;9.90;64.20;;;;;;5030386;28;19927;-77
2023/05/02 05:47:23;;;;;;;;;;;9.90;64.20;;;;;;5015549;28;19956;-78
2023/05/02 05:49:55;;;;;;;;;;;9.90;64.10;;;;;;5029473;28;19920;-78
2023/05/02 05:52:20;;;;;;;;;;;10.00;64.20;;;;;;5028203;28;19928;-78
2023/05/02 05:54:46;;;;;;;;;;;10.00;64.10;;;;;;5031658;28;19921;-78
2023/05/02 05:57:11;;;;;;;;;;;10.00;64.10;;;;;;5050534;28;19990;-78
2023/05/02 05:59:37;;;;;;;;;;;10.10;64.10;;;;;;5010311;28;19921;-78
2023/05/02 06:02:02;;;;;;;;;;;10.10;64.10;;;;;;5011123;28;19922;-78
2023/05/02 06:04:28;;;;;;;;;;;10.20;64.10;;;;;;5007345;28;19921;-78
2023/05/02 06:06:54;;;;;;;;;;;10.20;64.10;;;;;;5012563;28;19925;-78
2023/05/02 06:09:19;;;;;;;;;;;10.30;64.10;;;;;;5021820;28;20743;-77
2023/05/02 06:11:45;;;;;;;;;;;10.30;64.00;;;;;;4996478;28;19921;-78
2023/05/02 06:14:10;;;;;;;;;;;10.40;64.00;;;;;;5010724;28;20578;-77
2023/05/02 06:16:35;;;;;;;;;;;10.40;64.00;;;;;;5016427;28;19929;-78
2023/05/02 06:19:01;;;;;;;;;;;10.50;64.00;;;;;;5032198;28;19970;-78
2023/05/02 06:21:26;;;;;;;;;;;10.60;64.00;;;;;;5026418;28;19952;-78
2023/05/02 06:23:52;;;;;;;;;;;10.60;64.80;;;;;;5030125;28;19924;-78
2023/05/02 06:26:17;;;;;;;;;;;10.70;63.90;;;;;;5031652;28;19921;-78
2023/05/02 06:28:43;;;;;;;;;;;10.70;63.90;;;;;;5029426;28;19925;-78
2023/05/02 06:31:08;;;;;;;;;;;10.80;63.80;;;;;;5039396;28;19931;-78
2023/05/02 06:33:34;;;;;;;;;;;11.00;63.90;;;;;;5026573;28;20319;-78
2023/05/02 06:35:59;;;;;;;;;;;11.00;63.80;;;;;;5042832;28;19978;-77
2023/05/02 06:38:25;;;;;;;;;;;11.10;63.70;;;;;;5033132;28;19924;-78
2023/05/02 06:40:50;;;;;;;;;;;11.20;63.70;;;;;;5025229;28;20036;-78
2023/05/02 06:43:16;;;;;;;;;;;11.30;63.60;;;;;;5017820;28;19924;-78
2023/05/02 06:45:43;;;;;;;;;;;11.50;63.60;;;;;;5029193;28;26883;-77
2023/05/02 06:48:09;;;;;;;;;;;11.60;63.50;;;;;;5017843;28;19917;-78
2023/05/02 06:50:35;;;;;;;;;;;11.70;63.50;;;;;;5032459;28;19987;-77
2023/05/02 06:53:00;;;;;;;;;;;11.80;63.40;;;;;;5034603;28;19960;-78
2023/05/02 06:55:25;;;;;;;;;;;11.80;63.30;;;;;;5048257;28;20357;-77
2023/05/02 06:57:51;;;;;;;;;;;11.90;63.20;;;;;;5034822;28;19928;-78
2023/05/02 07:00:17;;;;;;;;;;;12.00;63.20;;;;;;5032543;28;20023;-78
2023/05/02 07:02:46;;;;;;;;;;;12.20;63.30;;;;;;5026574;28;19925;-78
2023/05/02 07:05:12;;;;;;;;;;;12.30;63.20;;;;;;5026004;28;19921;-78
2023/05/02 07:07:38;;;;;;;;;;;12.50;63.10;;;;;;5027682;28;19921;-78
2023/05/02 07:10:03;;;;;;;;;;;12.70;63.00;;;;;;5015481;28;20418;-78
2023/05/02 07:12:29;;;;;;;;;;;12.80;62.80;;;;;;5023167;28;19921;-78
2023/05/02 07:14:54;;;;;;;;;;;13.00;62.70;;;;;;5030916;28;19925;-78
2023/05/02 07:17:20;;;;;;;;;;;13.20;62.60;;;;;;5015328;28;19922;-77
2023/05/02 07:19:45;;;;;;;;;;;13.30;62.40;;;;;;5024963;28;20107;-77
2023/05/02 07:22:11;;;;;;;;;;;13.50;62.40;;;;;;5014439;28;20818;-78
2023/05/02 07:24:39;;;;;;;;;;;13.60;62.10;;;;;;5031730;28;19928;-78
2023/05/02 07:27:04;;;;;;;;;;;13.70;62.10;;;;;;5034022;28;19993;-78
2023/05/02 07:29:30;;;;;;;;;;;13.80;62.10;;;;;;5032457;28;20581;-77
2023/05/02 07:31:55;;;;;;;;;;;13.90;62.00;;;;;;5023592;28;19988;-78
2023/05/02 07:34:21;;;;;;;;;;;14.10;61.90;;;;;;5028844;28;19921;-77
2023/05/02 07:36:46;;;;;;;;;;;14.10;61.70;;;;;;5034138;28;20000;-78
2023/05/02 07:39:12;;;;;;;;;;;14.30;61.70;;;;;;5018807;28;19926;-77
2023/05/02 07:41:37;;;;;;;;;;;14.40;61.60;;;;;;5035596;28;19921;-78
2023/05/02 07:44:03;;;;;;;;;;;14.60;61.60;;;;;;5009947;28;20342;-78
2023/05/02 07:46:28;;;;;;;;;;;14.70;61.50;;;;;;5033384;28;19966;-78
2023/05/02 07:48:54;;;;;;;;;;;14.80;61.40;;;;;;5034924;28;19925;-79
2023/05/02 07:51:20;;;;;;;;;;;15.10;61.30;;;;;;5031213;28;20000;-77
2023/05/02 07:53:46;;;;;;;;;;;15.20;61.20;;;;;;5016288;28;20116;-77
2023/05/02 07:56:11;;;;;;;;;;;15.40;61.00;;;;;;5010576;28;19963;-78
2023/05/02 07:58:37;;;;;;;;;;;15.50;60.80;;;;;;5017715;28;20013;-77
2023/05/02 08:01:03;;;;;;;;;;;15.60;60.70;;;;;;5000001;28;19927;-78
2023/05/02 08:03:28;;;;;;;;;;;15.80;60.70;;;;;;5020796;28;19925;-78
2023/05/02 08:05:54;;;;;;;;;;;15.90;60.60;;;;;;5014430;28;19932;-77
2023/05/02 08:08:19;;;;;;;;;;;16.00;60.50;;;;;;5024257;28;20546;-77
2023/05/02 08:10:45;;;;;;;;;;;16.00;60.30;;;;;;5038982;28;19920;-77
2023/05/02 08:13:11;;;;;;;;;;;16.10;60.30;;;;;;5003926;28;19978;-77
2023/05/02 08:15:36;;;;;;;;;;;16.10;60.30;;;;;;5015740;28;20577;-77
2023/05/02 08:18:02;;;;;;;;;;;16.20;60.30;;;;;;5010314;28;19948;-77
2023/05/02 08:20:27;;;;;;;;;;;16.30;60.30;;;;;;5013759;28;19917;-78
2023/05/02 08:22:53;;;;;;;;;;;16.50;60.20;;;;;;5030837;28;19932;-77
2023/05/02 08:25:18;;;;;;;;;;;16.80;60.20;;;;;;5031111;28;19963;-78
2023/05/02 08:27:44;;;;;;;;;;;16.90;59.90;;;;;;5006593;28;19971;-77
2023/05/02 08:30:09;;;;;;;;;;;17.20;59.80;;;;;;5016120;28;20335;-77
2023/05/02 08:32:35;;;;;;;;;;;17.40;59.60;;;;;;5027904;28;20000;-77
2023/05/02 08:35:01;;;;;;;;;;;17.50;59.50;;;;;;5024342;28;19921;-77
2023/05/02 08:37:26;;;;;;;;;;;17.70;59.40;;;;;;5010376;28;19952;-78
2023/05/02 08:39:52;;;;;;;;;;;17.90;59.30;;;;;;5013169;28;19926;-77
2023/05/02 08:42:19;;;;;;;;;;;18.10;59.10;;;;;;5042137;28;20623;-77
2023/05/02 08:44:45;;;;;;;;;;;18.10;58.90;;;;;;5014917;28;19945;-77
2023/05/02 08:47:11;;;;;;;;;;;18.20;58.90;;;;;;5018192;28;19932;-77
2023/05/02 08:49:36;;;;;;;;;;;18.20;58.80;;;;;;5018770;28;20340;-77
2023/05/02 08:52:02;;;;;;;;;;;18.30;58.80;;;;;;5019818;28;19982;-77
2023/05/02 08:54:27;;;;;;;;;;;18.40;58.80;;;;;;5028542;28;19921;-77
2023/05/02 08:56:53;;;;;;;;;;;18.50;58.80;;;;;;5018354;28;19925;-77
2023/05/02 08:59:18;;;;;;;;;;;18.50;58.70;;;;;;5038869;28;19984;-77
2023/05/02 09:01:45;;;;;;;;;;;18.60;58.70;;;;;;5023675;28;20010;-77
2023/05/02 09:04:10;;;;;;;;;;;18.60;58.70;;;;;;5012889;28;19929;-77
2023/05/02 09:06:36;;;;;;;;;;;18.70;58.70;;;;;;5001155;28;19950;-77
2023/05/02 09:09:02;;;;;;;;;;;18.70;58.60;;;;;;5015584;28;20481;-77
2023/05/02 09:11:27;;;;;;;;;;;18.90;58.60;;;;;;5014619;28;20026;-78
2023/05/02 09:13:53;;;;;;;;;;;19.00;58.50;;;;;;5026142;28;20661;-78
2023/05/02 09:16:21;;;;;;;;;;;19.10;58.40;;;;;;5013347;28;19975;-77
2023/05/02 09:18:47;;;;;;;;;;;19.20;58.30;;;;;;5015658;28;20003;-77
2023/05/02 09:21:19;;;;;;;;;;;19.30;58.20;;;;;;5012446;28;19932;-77
2023/05/02 09:23:46;;;;;;;;;;;19.40;58.20;;;;;;5031982;28;20722;-77
2023/05/02 09:26:11;;;;;;;;;;;19.40;58.10;;;;;;4994859;28;19917;-77
2023/05/02 09:28:38;;;;;;;;;;;19.40;58.10;;;;;;5015444;28;19928;-77
2023/05/02 09:31:05;;;;;;;;;;;19.40;58.10;;;;;;5010812;28;19925;-77
2023/05/02 09:33:30;;;;;;;;;;;19.30;58.10;;;;;;5007411;28;20542;-77
2023/05/02 09:35:56;;;;;;;;;;;19.30;58.20;;;;;;5011804;28;19925;-78
2023/05/02 09:38:21;;;;;;;;;;;19.30;58.20;;;;;;5000052;28;20292;-77
2023/05/02 09:40:52;;;;;;;;;;;19.30;58.20;;;;;;4994398;28;19935;-77
2023/05/02 09:43:17;;;;;;;;;;;19.30;58.30;;;;;;5016127;28;20023;-76
2023/05/02 09:45:43;;;;;;;;;;;19.30;58.30;;;;;;5010237;28;19925;-77
2023/05/02 09:48:08;;;;;;;;;;;19.30;58.20;;;;;;4998274;28;19929;-77
2023/05/02 09:50:34;;;;;;;;;;;19.30;58.30;;;;;;5010556;28;20299;-77
2023/05/02 09:53:01;;;;;;;;;;;19.30;58.30;;;;;;5010752;28;20452;-77
2023/05/02 09:55:26;;;;;;;;;;;19.40;58.30;;;;;;5020442;28;19927;-77
2023/05/02 09:57:52;;;;;;;;;;;19.40;58.20;;;;;;5029721;28;19925;-77
2023/05/02 10:00:18;;;;;;;;;;;19.40;58.10;;;;;;5032117;28;19952;-80
2023/05/02 10:02:45;;;;;;;;;;;19.50;58.10;;;;;;5037695;28;20012;-78
2023/05/02 10:05:10;;;;;;;;;;;19.50;58.10;;;;;;5013696;28;21877;-76
2023/05/02 10:07:35;;;;;;;;;;;19.50;58.10;;;;;;5013226;28;19921;-78
2023/05/02 10:10:01;;;;;;;;;;;19.60;58.00;;;;;;5021747;28;19924;-78
2023/05/02 10:12:26;;;;;;;;;;;19.60;58.00;;;;;;5031104;28;20422;-77
2023/05/02 10:14:54;;;;;;;;;;;19.80;58.10;;;;;;5035944;28;19979;-78
2023/05/02 10:17:30;;;;;;;;;;;20.00;57.90;;;;;;5033801;28;19984;-78
2023/05/02 10:19:56;;;;;;;;;;;20.30;57.80;;;;;;5032981;28;19948;-78
2023/05/02 10:22:22;;;;;;;;;;;20.50;57.50;;;;;;4998700;28;19925;-78
2023/05/02 10:24:47;;;;;;;;;;;20.70;57.30;;;;;;5046649;28;19921;-77
2023/05/02 10:27:13;;;;;;;;;;;20.90;57.10;;;;;;5038969;28;19927;-77
2023/05/02 10:29:38;;;;;;;;;;;21.10;56.90;;;;;;5038492;28;19924;-78
2023/05/02 10:32:04;;;;;;;;;;;21.30;56.80;;;;;;5027880;28;20054;-78
2023/05/02 10:34:30;;;;;;;;;;;21.40;56.60;;;;;;5032080;28;19956;-78
2023/05/02 10:37:00;;;;;;;;;;;21.50;56.50;;;;;;5023847;28;19921;-77
2023/05/02 10:39:25;;;;;;;;;;;21.60;56.50;;;;;;5045102;28;19924;-77
2023/05/02 10:41:51;;;;;;;;;;;21.60;56.40;;;;;;5003709;28;19924;-78
2023/05/02 10:44:18;;;;;;;;;;;21.50;56.40;;;;;;5015809;28;19988;-77
2023/05/02 10:46:43;;;;;;;;;;;21.50;56.40;;;;;;5011344;28;20024;-77
2023/05/02 10:49:09;;;;;;;;;;;21.50;56.50;;;;;;5013480;28;20015;-78
2023/05/02 10:51:35;;;;;;;;;;;21.40;57.20;;;;;;4995574;28;20443;-77
2023/05/02 10:54:16;;;;;;;;;;;21.40;56.60;;;;;;5010038;28;19925;-78
2023/05/02 10:56:57;;;;;;;;;;;21.30;56.70;;;;;;5019335;28;19948;-78
2023/05/02 10:59:26;;;;;;;;;;;21.30;56.70;;;;;;5010476;28;19929;-77
2023/05/02 11:01:52;;;;;;;;;;;21.30;56.70;;;;;;5012179;28;19990;-77
2023/05/02 11:04:17;;;;;;;;;;;21.30;56.70;;;;;;5028849;28;20384;-77
2023/05/02 11:06:58;;;;;;;;;;;21.30;56.70;;;;;;5010253;28;20031;-77
2023/05/02 11:09:23;;;;;;;;;;;21.20;56.70;;;;;;5046306;28;20112;-77
2023/05/02 11:11:51;;;;;;;;;;;21.20;56.80;;;;;;5036002;28;19928;-77
2023/05/02 11:14:26;;;;;;;;;;;21.20;56.80;;;;;;5034752;28;20525;-78
2023/05/02 11:17:04;;;;;;;;;;;21.30;56.90;;;;;;5046687;28;19921;-77
2023/05/02 11:19:30;;;;;;;;;;;21.50;56.80;;;;;;5017642;28;19922;-78
2023/05/02 11:22:28;;;;;;;;;;;21.70;56.70;;;;;;5001637;28;19921;-78
2023/05/02 11:24:53;;;;;;;;;;;21.80;56.50;;;;;;5009494;28;20019;-78
2023/05/02 11:27:28;;;;;;;;;;;22.00;56.30;;;;;;5034539;28;20011;-78
2023/05/02 11:29:54;;;;;;;;;;;22.10;56.20;;;;;;5034044;28;19932;-78
2023/05/02 11:32:19;;;;;;;;;;;22.40;56.10;;;;;;5031567;28;19931;-78
2023/05/02 11:34:46;;;;;;;;;;;22.50;55.80;;;;;;5019912;28;19944;-78
2023/05/02 11:37:12;;;;;;;;;;;22.80;55.80;;;;;;5015841;28;19920;-76
2023/05/02 11:39:38;;;;;;;;;;;23.00;55.50;;;;;;5029580;28;20441;-77
2023/05/02 11:42:04;;;;;;;;;;;23.20;55.30;;;;;;5030087;28;19982;-75
2023/05/02 11:44:29;;;;;;;;;;;23.40;55.10;;;;;;5034419;28;19921;-76
2023/05/02 11:46:54;;;;;;;;;;;23.50;55.00;;;;;;5027811;28;20375;-76
2023/05/02 11:49:20;;;;;;;;;;;23.60;54.90;;;;;;5026871;28;20028;-76
2023/05/02 11:51:45;;;;;;;;;;;23.80;54.80;;;;;;5006079;28;19917;-76
2023/05/02 11:54:17;;;;;;;;;;;23.80;54.60;;;;;;5007271;28;20506;-76
2023/05/02 11:56:43;;;;;;;;;;;23.80;54.60;;;;;;5011887;28;19928;-76
2023/05/02 11:59:08;;;;;;;;;;;23.70;54.70;;;;;;5009229;28;20327;-76
2023/05/02 12:01:34;;;;;;;;;;;23.70;54.80;;;;;;5016731;28;19943;-78
2023/05/02 12:04:03;;;;;;;;;;;23.60;54.80;;;;;;5028699;28;19939;-77
2023/05/02 12:06:28;;;;;;;;;;;23.60;54.80;;;;;;5041921;28;19928;-77
2023/05/02 12:09:04;;;;;;;;;;;23.70;54.90;;;;;;5042322;28;19932;-78
2023/05/02 12:11:30;;;;;;;;;;;23.70;54.90;;;;;;4998984;28;19921;-77
2023/05/02 12:13:55;;;;;;;;;;;23.70;54.90;;;;;;5011141;28;19935;-78
2023/05/02 12:16:21;;;;;;;;;;;23.70;54.80;;;;;;5008024;28;19928;-78
2023/05/02 12:18:46;;;;;;;;;;;23.60;54.80;;;;;;5012369;28;20383;-77
2023/05/02 12:21:12;;;;;;;;;;;23.60;54.80;;;;;;5013782;28;19956;-78
2023/05/02 12:23:38;;;;;;;;;;;23.70;54.80;;;;;;4996911;28;20435;-77
2023/05/02 12:26:16;;;;;;;;;;;23.70;54.80;;;;;;5014013;28;19921;-77
2023/05/02 12:28:49;;;;;;;;;;;23.60;54.80;;;;;;5008778;28;19929;-77
2023/05/02 12:31:15;;;;;;;;;;;23.70;54.90;;;;;;5011963;28;19921;-78
2023/05/02 12:33:41;;;;;;;;;;;23.80;54.90;;;;;;5029224;28;19974;-77
2023/05/02 12:36:08;;;;;;;;;;;23.90;54.80;;;;;;5028146;28;19920;-79
2023/05/02 12:38:33;;;;;;;;;;;24.10;54.70;;;;;;5037562;28;19921;-78
2023/05/02 12:40:59;;;;;;;;;;;24.40;54.50;;;;;;5036804;28;19936;-77
2023/05/02 12:43:24;;;;;;;;;;;24.50;54.20;;;;;;5037615;28;19986;-78
2023/05/02 12:45:53;;;;;;;;;;;24.60;54.10;;;;;;5033177;28;20702;-78
2023/05/02 12:48:21;;;;;;;;;;;24.60;54.00;;;;;;5022275;28;19921;-78
2023/05/02 12:50:46;;;;;;;;;;;24.60;54.00;;;;;;5036159;28;20016;-78
2023/05/02 12:53:12;;;;;;;;;;;24.50;54.00;;;;;;5036392;28;20007;-78
2023/05/02 12:55:37;;;;;;;;;;;24.50;54.10;;;;;;5022063;28;19920;-78
2023/05/02 12:58:03;;;;;;;;;;;24.60;54.10;;;;;;5032057;28;19921;-78
2023/05/02 13:00:35;;;;;;;;;;;24.80;54.00;;;;;;5045539;28;19921;-78
2023/05/02 13:03:01;;;;;;;;;;;24.90;53.80;;;;;;5036051;28;19936;-77
2023/05/02 13:05:26;;;;;;;;;;;25.10;53.70;;;;;;5017237;28;19926;-77
2023/05/02 13:07:52;;;;;;;;;;;25.20;53.50;;;;;;5011521;28;19975;-77
2023/05/02 13:10:17;;;;;;;;;;;25.40;53.40;;;;;;5015361;28;19960;-77
2023/05/02 13:12:46;;;;;;;;;;;25.50;53.30;;;;;;5015835;28;19957;-78
2023/05/02 13:15:12;;;;;;;;;;;25.70;53.20;;;;;;5039880;28;20399;-78
2023/05/02 13:17:38;;;;;;;;;;;25.90;53.00;;;;;;5029869;28;19924;-77
2023/05/02 13:20:04;;;;;;;;;;;26.00;53.00;;;;;;5010624;28;19921;-77
2023/05/02 13:22:29;;;;;;;;;;;26.10;52.90;;;;;;5042393;28;19956;-77
2023/05/02 13:24:55;;;;;;;;;;;26.20;52.70;;;;;;5018999;28;19971;-77
2023/05/02 13:27:23;;;;;;;;;;;26.20;52.70;;;;;;5022650;28;19921;-78
2023/05/02 13:29:49;;;;;;;;;;;26.30;52.70;;;;;;5027804;28;20095;-78
2023/05/02 13:32:15;;;;;;;;;;;26.50;52.60;;;;;;5018043;28;19921;-78
2023/05/02 13:34:40;;;;;;;;;;;26.60;52.50;;;;;;5030234;28;19920;-77
2023/05/02 13:37:06;;;;;;;;;;;26.70;52.30;;;;;;5031841;28;19927;-77
2023/05/02 13:39:31;;;;;;;;;;;26.90;52.40;;;;;;5014382;28;21386;-77
2023/05/02 13:41:57;;;;;;;;;;;27.10;52.20;;;;;;5034550;28;20014;-77
2023/05/02 13:44:22;;;;;;;;;;;27.10;52.00;;;;;;5035613;28;19925;-78
2023/05/02 13:46:48;;;;;;;;;;;27.10;52.00;;;;;;5016422;28;20307;-77
2023/05/02 13:49:13;;;;;;;;;;;26.90;51.90;;;;;;5029455;28;19921;-77
2023/05/02 13:51:39;;;;;;;;;;;26.70;52.00;;;;;;5029230;28;20375;-77
2023/05/02 13:54:04;;;;;;;;;;;26.60;52.20;;;;;;5018210;28;19954;-77
2023/05/02 13:56:30;;;;;;;;;;;26.40;52.30;;;;;;5029836;28;19928;-77
2023/05/02 13:58:55;;;;;;;;;;;26.30;52.50;;;;;;5029590;28;20301;-77
2023/05/02 14:01:21;;;;;;;;;;;26.30;52.50;;;;;;5028180;28;19928;-78
2023/05/02 14:03:46;;;;;;;;;;;26.50;52.60;;;;;;5033288;28;19982;-77
2023/05/02 14:09:15;;;;;;;;;;;26.70;52.40;;;;;;5033865;28;19927;-76
2023/05/02 14:11:43;;;;;;;;;;;26.70;52.30;;;;;;5008717;28;19935;-76
2023/05/02 14:14:11;;;;;;;;;;;26.80;52.30;;;;;;5028928;28;20842;-77
2023/05/02 14:16:37;;;;;;;;;;;26.70;52.20;;;;;;5016350;28;19932;-77
2023/05/02 14:19:02;;;;;;;;;;;26.60;52.10;;;;;;5019043;28;19921;-77
2023/05/02 14:21:28;;;;;;;;;;;26.60;52.20;;;;;;5007680;28;19922;-77